sensor_id;sensor_type;location;lat;lon;timestamp;temperature;humidity
53314;DHT22;39202;51.468;7.146;2023-07-02T00:04:52;30.50;40.50
53314;DHT22;39202;51.468;7.146;2023-07-02T00:09:55;30.50;40.50
53314;DHT22;39202;51.468;7.146;2023-07-02T00:14:57;30.50;40.50
53314;DHT22;39202;51.468;7.146;2023-07-02T00:19:58;30.50;40.50
53314;DHT22;39202;51.468;7.146;2023-07-02T00:25:08;30.50;40.50
53314;DHT22;39202;51.468;7.146;2023-07-02T00:30:11;30.50;40.50
53314;DHT22;39202;51.468;7.146;2023-07-02T00:35:13;30.50;40.50
53314;DHT22;39202;51.468;7.146;2023-07-02T00:40:16;30.50;40.50
53314;DHT22;39202;51.468;7.146;2023-07-02T00:45:17;30.50;40.40
53314;DHT22;39202;51.468;7.146;2023-07-02T00:50:19;30.50;41.10
53314;DHT22;39202;51.468;7.146;2023-07-02T00:55:22;30.70;40.60
53314;DHT22;39202;51.468;7.146;2023-07-02T01:00:24;30.50;40.40
53314;DHT22;39202;51.468;7.146;2023-07-02T01:05:26;30.40;40.30
53314;DHT22;39202;51.468;7.146;2023-07-02T01:10:37;30.40;40.30
53314;DHT22;39202;51.468;7.146;2023-07-02T01:15:39;30.40;40.30
53314;DHT22;39202;51.468;7.146;2023-07-02T01:20:43;30.40;40.30
53314;DHT22;39202;51.468;7.146;2023-07-02T01:25:45;30.40;40.30
53314;DHT22;39202;51.468;7.146;2023-07-02T01:30:46;30.40;40.30
53314;DHT22;39202;51.468;7.146;2023-07-02T01:35:50;30.40;40.30
53314;DHT22;39202;51.468;7.146;2023-07-02T01:40:51;30.40;40.30
53314;DHT22;39202;51.468;7.146;2023-07-02T01:45:53;30.40;40.20
53314;DHT22;39202;51.468;7.146;2023-07-02T01:50:57;30.40;40.20
53314;DHT22;39202;51.468;7.146;2023-07-02T01:55:59;30.40;40.20
53314;DHT22;39202;51.468;7.146;2023-07-02T02:01:00;30.40;40.20
53314;DHT22;39202;51.468;7.146;2023-07-02T02:06:04;30.30;40.10
53314;DHT22;39202;51.468;7.146;2023-07-02T02:11:05;30.30;40.10
53314;DHT22;39202;51.468;7.146;2023-07-02T02:16:07;30.30;40.10
53314;DHT22;39202;51.468;7.146;2023-07-02T02:21:10;30.30;40.10
53314;DHT22;39202;51.468;7.146;2023-07-02T02:26:12;30.30;40.10
53314;DHT22;39202;51.468;7.146;2023-07-02T02:31:14;30.30;40.10
53314;DHT22;39202;51.468;7.146;2023-07-02T02:36:17;30.30;40.10
53314;DHT22;39202;51.468;7.146;2023-07-02T02:41:19;30.30;40.00
53314;DHT22;39202;51.468;7.146;2023-07-02T02:46:22;30.30;40.00
53314;DHT22;39202;51.468;7.146;2023-07-02T02:51:25;30.30;40.10
53314;DHT22;39202;51.468;7.146;2023-07-02T02:56:27;30.30;40.00
53314;DHT22;39202;51.468;7.146;2023-07-02T03:01:29;30.20;40.00
53314;DHT22;39202;51.468;7.146;2023-07-02T03:06:33;30.20;40.00
53314;DHT22;39202;51.468;7.146;2023-07-02T03:11:35;30.20;40.00
53314;DHT22;39202;51.468;7.146;2023-07-02T03:16:36;30.20;40.00
53314;DHT22;39202;51.468;7.146;2023-07-02T03:21:40;30.20;40.00
53314;DHT22;39202;51.468;7.146;2023-07-02T03:26:42;30.30;39.90
53314;DHT22;39202;51.468;7.146;2023-07-02T03:31:44;30.20;39.90
53314;DHT22;39202;51.468;7.146;2023-07-02T03:36:47;30.20;39.90
53314;DHT22;39202;51.468;7.146;2023-07-02T03:41:49;30.40;40.00
53314;DHT22;39202;51.468;7.146;2023-07-02T03:46:50;30.20;39.80
53314;DHT22;39202;51.468;7.146;2023-07-02T03:51:53;30.20;39.80
53314;DHT22;39202;51.468;7.146;2023-07-02T03:56:55;30.20;39.70
53314;DHT22;39202;51.468;7.146;2023-07-02T04:01:57;30.20;39.60
53314;DHT22;39202;51.468;7.146;2023-07-02T04:07:01;30.50;39.70
53314;DHT22;39202;51.468;7.146;2023-07-02T04:12:04;30.10;39.70
53314;DHT22;39202;51.468;7.146;2023-07-02T04:17:06;30.20;39.80
53314;DHT22;39202;51.468;7.146;2023-07-02T04:22:09;30.10;39.80
53314;DHT22;39202;51.468;7.146;2023-07-02T04:27:11;30.10;39.80
53314;DHT22;39202;51.468;7.146;2023-07-02T04:32:13;30.10;39.80
53314;DHT22;39202;51.468;7.146;2023-07-02T04:37:16;30.10;39.80
53314;DHT22;39202;51.468;7.146;2023-07-02T04:42:18;30.70;40.10
53314;DHT22;39202;51.468;7.146;2023-07-02T04:47:20;30.10;39.80
53314;DHT22;39202;51.468;7.146;2023-07-02T04:52:23;30.10;39.90
53314;DHT22;39202;51.468;7.146;2023-07-02T04:57:25;30.10;39.70
53314;DHT22;39202;51.468;7.146;2023-07-02T05:02:28;30.10;39.80
53314;DHT22;39202;51.468;7.146;2023-07-02T05:07:31;30.10;39.90
53314;DHT22;39202;51.468;7.146;2023-07-02T05:12:34;30.10;39.80
53314;DHT22;39202;51.468;7.146;2023-07-02T05:17:36;30.20;39.90
53314;DHT22;39202;51.468;7.146;2023-07-02T05:22:39;31.10;40.40
53314;DHT22;39202;51.468;7.146;2023-07-02T05:27:41;30.10;39.80
53314;DHT22;39202;51.468;7.146;2023-07-02T05:32:42;30.20;39.90
53314;DHT22;39202;51.468;7.146;2023-07-02T05:37:45;30.10;39.90
53314;DHT22;39202;51.468;7.146;2023-07-02T05:42:47;30.20;40.00
53314;DHT22;39202;51.468;7.146;2023-07-02T05:47:49;30.20;40.00
53314;DHT22;39202;51.468;7.146;2023-07-02T05:52:52;30.20;39.80
53314;DHT22;39202;51.468;7.146;2023-07-02T05:57:53;29.80;39.70
53314;DHT22;39202;51.468;7.146;2023-07-02T06:02:57;30.30;40.00
53314;DHT22;39202;51.468;7.146;2023-07-02T06:08:00;30.30;39.80
53314;DHT22;39202;51.468;7.146;2023-07-02T06:13:02;30.40;39.80
53314;DHT22;39202;51.468;7.146;2023-07-02T06:18:04;30.40;39.80
53314;DHT22;39202;51.468;7.146;2023-07-02T06:23:07;30.50;39.90
53314;DHT22;39202;51.468;7.146;2023-07-02T06:28:09;30.60;39.90
53314;DHT22;39202;51.468;7.146;2023-07-02T06:33:12;30.50;39.90
53314;DHT22;39202;51.468;7.146;2023-07-02T06:38:15;30.60;40.00
53314;DHT22;39202;51.468;7.146;2023-07-02T06:43:18;30.60;40.00
53314;DHT22;39202;51.468;7.146;2023-07-02T06:48:20;30.50;39.80
53314;DHT22;39202;51.468;7.146;2023-07-02T06:53:23;30.70;39.90
53314;DHT22;39202;51.468;7.146;2023-07-02T06:58:25;31.00;40.00
53314;DHT22;39202;51.468;7.146;2023-07-02T07:03:26;30.80;39.70
53314;DHT22;39202;51.468;7.146;2023-07-02T07:08:29;30.80;39.80
53314;DHT22;39202;51.468;7.146;2023-07-02T07:13:31;30.80;39.70
53314;DHT22;39202;51.468;7.146;2023-07-02T07:18:33;31.00;39.70
53314;DHT22;39202;51.468;7.146;2023-07-02T07:23:37;32.00;40.20
53314;DHT22;39202;51.468;7.146;2023-07-02T07:28:39;31.20;39.50
53314;DHT22;39202;51.468;7.146;2023-07-02T07:33:40;31.00;39.30
53314;DHT22;39202;51.468;7.146;2023-07-02T07:38:44;32.50;40.10
53314;DHT22;39202;51.468;7.146;2023-07-02T07:43:46;31.10;39.10
53314;DHT22;39202;51.468;7.146;2023-07-02T07:48:47;31.10;39.10
53314;DHT22;39202;51.468;7.146;2023-07-02T07:53:50;31.20;39.00
53314;DHT22;39202;51.468;7.146;2023-07-02T07:58:52;31.20;38.90
53314;DHT22;39202;51.468;7.146;2023-07-02T08:03:54;31.20;38.90
53314;DHT22;39202;51.468;7.146;2023-07-02T08:08:57;32.60;39.70
53314;DHT22;39202;51.468;7.146;2023-07-02T08:13:59;31.30;38.60
53314;DHT22;39202;51.468;7.146;2023-07-02T08:19:01;31.40;38.60
53314;DHT22;39202;51.468;7.146;2023-07-02T08:24:05;31.40;38.60
53314;DHT22;39202;51.468;7.146;2023-07-02T08:29:07;31.40;38.40
53314;DHT22;39202;51.468;7.146;2023-07-02T08:34:09;31.40;38.40
53314;DHT22;39202;51.468;7.146;2023-07-02T08:39:12;31.40;38.30
53314;DHT22;39202;51.468;7.146;2023-07-02T08:44:16;31.50;38.20
53314;DHT22;39202;51.468;7.146;2023-07-02T08:49:19;31.40;38.30
53314;DHT22;39202;51.468;7.146;2023-07-02T08:54:22;31.50;38.00
53314;DHT22;39202;51.468;7.146;2023-07-02T08:59:25;31.50;38.00
53314;DHT22;39202;51.468;7.146;2023-07-02T09:04:27;31.50;37.70
53314;DHT22;39202;51.468;7.146;2023-07-02T09:09:31;31.50;37.50
53314;DHT22;39202;51.468;7.146;2023-07-02T09:14:32;31.60;37.50
53314;DHT22;39202;51.468;7.146;2023-07-02T09:19:35;31.50;37.50
53314;DHT22;39202;51.468;7.146;2023-07-02T09:24:38;31.60;37.70
53314;DHT22;39202;51.468;7.146;2023-07-02T09:29:40;31.80;38.20
53314;DHT22;39202;51.468;7.146;2023-07-02T09:34:41;31.70;37.50
53314;DHT22;39202;51.468;7.146;2023-07-02T09:39:50;31.70;37.50
53314;DHT22;39202;51.468;7.146;2023-07-02T09:44:52;31.70;37.90
53314;DHT22;39202;51.468;7.146;2023-07-02T09:50:00;31.80;37.50
53314;DHT22;39202;51.468;7.146;2023-07-02T09:55:07;31.80;37.30
53314;DHT22;39202;51.468;7.146;2023-07-02T10:00:10;31.80;37.20
53314;DHT22;39202;51.468;7.146;2023-07-02T10:05:27;31.90;37.30
53314;DHT22;39202;51.468;7.146;2023-07-02T10:10:31;32.00;37.10
53314;DHT22;39202;51.468;7.146;2023-07-02T10:15:33;32.00;37.00
53314;DHT22;39202;51.468;7.146;2023-07-02T10:20:39;32.00;37.00
53314;DHT22;39202;51.468;7.146;2023-07-02T10:25:42;32.00;36.90
53314;DHT22;39202;51.468;7.146;2023-07-02T10:30:44;32.40;36.90
53314;DHT22;39202;51.468;7.146;2023-07-02T10:35:48;32.10;36.70
53314;DHT22;39202;51.468;7.146;2023-07-02T10:40:55;32.00;36.50
53314;DHT22;39202;51.468;7.146;2023-07-02T10:45:58;32.10;36.30
53314;DHT22;39202;51.468;7.146;2023-07-02T10:51:11;32.00;36.40
53314;DHT22;39202;51.468;7.146;2023-07-02T10:56:17;32.10;36.50
53314;DHT22;39202;51.468;7.146;2023-07-02T11:01:26;32.20;36.40
53314;DHT22;39202;51.468;7.146;2023-07-02T11:06:29;32.20;36.50
53314;DHT22;39202;51.468;7.146;2023-07-02T11:11:32;32.20;36.50
53314;DHT22;39202;51.468;7.146;2023-07-02T11:16:34;32.20;36.30
53314;DHT22;39202;51.468;7.146;2023-07-02T11:21:37;32.20;36.20
53314;DHT22;39202;51.468;7.146;2023-07-02T11:26:41;32.30;37.10
53314;DHT22;39202;51.468;7.146;2023-07-02T11:31:43;32.90;36.80
53314;DHT22;39202;51.468;7.146;2023-07-02T11:36:45;32.30;36.10
53314;DHT22;39202;51.468;7.146;2023-07-02T11:41:49;32.30;36.00
53314;DHT22;39202;51.468;7.146;2023-07-02T11:46:52;32.30;37.00
53314;DHT22;39202;51.468;7.146;2023-07-02T11:51:54;32.60;36.10
53314;DHT22;39202;51.468;7.146;2023-07-02T11:56:57;32.40;43.60
53314;DHT22;39202;51.468;7.146;2023-07-02T12:01:59;31.60;35.50
53314;DHT22;39202;51.468;7.146;2023-07-02T12:07:01;32.50;35.70
53314;DHT22;39202;51.468;7.146;2023-07-02T12:12:06;32.50;35.70
53314;DHT22;39202;51.468;7.146;2023-07-02T12:17:09;32.50;35.60
53314;DHT22;39202;51.468;7.146;2023-07-02T12:22:12;32.50;35.60
53314;DHT22;39202;51.468;7.146;2023-07-02T12:27:18;32.50;35.40
53314;DHT22;39202;51.468;7.146;2023-07-02T12:32:20;32.50;35.40
53314;DHT22;39202;51.468;7.146;2023-07-02T12:37:22;32.60;35.40
53314;DHT22;39202;51.468;7.146;2023-07-02T12:42:25;32.50;35.20
53314;DHT22;39202;51.468;7.146;2023-07-02T12:47:27;32.50;35.00
53314;DHT22;39202;51.468;7.146;2023-07-02T12:52:29;32.60;35.00
53314;DHT22;39202;51.468;7.146;2023-07-02T12:57:32;32.50;35.00
53314;DHT22;39202;51.468;7.146;2023-07-02T13:02:34;32.60;35.00
53314;DHT22;39202;51.468;7.146;2023-07-02T13:07:35;32.60;35.00
53314;DHT22;39202;51.468;7.146;2023-07-02T13:12:38;32.70;35.00
53314;DHT22;39202;51.468;7.146;2023-07-02T13:17:40;31.90;34.10
53314;DHT22;39202;51.468;7.146;2023-07-02T13:22:44;32.60;34.90
53314;DHT22;39202;51.468;7.146;2023-07-02T13:27:47;32.60;34.80
53314;DHT22;39202;51.468;7.146;2023-07-02T13:32:49;32.60;34.70
53314;DHT22;39202;51.468;7.146;2023-07-02T13:37:50;32.60;34.60
53314;DHT22;39202;51.468;7.146;2023-07-02T13:42:54;32.60;34.50
53314;DHT22;39202;51.468;7.146;2023-07-02T13:47:56;32.30;34.30
53314;DHT22;39202;51.468;7.146;2023-07-02T13:52:58;32.70;34.40
53314;DHT22;39202;51.468;7.146;2023-07-02T13:58:01;32.60;33.60
53314;DHT22;39202;51.468;7.146;2023-07-02T14:03:05;32.60;32.90
53314;DHT22;39202;51.468;7.146;2023-07-02T14:08:06;32.40;32.50
53314;DHT22;39202;51.468;7.146;2023-07-02T14:13:10;32.30;32.60
53314;DHT22;39202;51.468;7.146;2023-07-02T14:18:13;32.10;32.30
53314;DHT22;39202;51.468;7.146;2023-07-02T14:23:15;32.10;32.10
53314;DHT22;39202;51.468;7.146;2023-07-02T14:28:16;31.80;69.90
53314;DHT22;39202;51.468;7.146;2023-07-02T14:33:20;31.70;32.60
53314;DHT22;39202;51.468;7.146;2023-07-02T14:38:22;31.60;32.60
53314;DHT22;39202;51.468;7.146;2023-07-02T14:43:26;31.50;32.90
53314;DHT22;39202;51.468;7.146;2023-07-02T14:48:30;31.40;32.70
53314;DHT22;39202;51.468;7.146;2023-07-02T14:53:32;31.30;32.60
53314;DHT22;39202;51.468;7.146;2023-07-02T14:58:35;31.30;32.80
53314;DHT22;39202;51.468;7.146;2023-07-02T15:03:38;31.10;32.50
53314;DHT22;39202;51.468;7.146;2023-07-02T15:08:40;31.00;32.50
53314;DHT22;39202;51.468;7.146;2023-07-02T15:13:42;30.90;32.70
53314;DHT22;39202;51.468;7.146;2023-07-02T15:18:45;30.80;32.70
53314;DHT22;39202;51.468;7.146;2023-07-02T15:23:48;30.70;32.60
53314;DHT22;39202;51.468;7.146;2023-07-02T15:28:50;31.50;33.10
53314;DHT22;39202;51.468;7.146;2023-07-02T15:33:53;30.60;32.70
53314;DHT22;39202;51.468;7.146;2023-07-02T15:38:56;30.40;32.50
53314;DHT22;39202;51.468;7.146;2023-07-02T15:43:58;30.50;32.70
53314;DHT22;39202;51.468;7.146;2023-07-02T15:49:05;30.40;32.80
53314;DHT22;39202;51.468;7.146;2023-07-02T15:54:07;30.30;32.80
53314;DHT22;39202;51.468;7.146;2023-07-02T15:59:09;30.50;32.90
53314;DHT22;39202;51.468;7.146;2023-07-02T16:04:12;30.30;32.80
53314;DHT22;39202;51.468;7.146;2023-07-02T16:09:15;30.20;32.80
53314;DHT22;39202;51.468;7.146;2023-07-02T16:14:17;30.20;32.90
53314;DHT22;39202;51.468;7.146;2023-07-02T16:19:23;30.20;32.90
53314;DHT22;39202;51.468;7.146;2023-07-02T16:24:28;30.10;73.80
53314;DHT22;39202;51.468;7.146;2023-07-02T16:29:30;30.20;35.60
53314;DHT22;39202;51.468;7.146;2023-07-02T16:34:34;30.10;32.50
53314;DHT22;39202;51.468;7.146;2023-07-02T16:39:36;30.00;32.40
53314;DHT22;39202;51.468;7.146;2023-07-02T16:44:39;30.00;32.50
53314;DHT22;39202;51.468;7.146;2023-07-02T16:49:42;31.40;34.00
53314;DHT22;39202;51.468;7.146;2023-07-02T16:54:48;30.00;32.70
53314;DHT22;39202;51.468;7.146;2023-07-02T16:59:51;29.80;32.40
53314;DHT22;39202;51.468;7.146;2023-07-02T17:04:55;29.80;33.20
53314;DHT22;39202;51.468;7.146;2023-07-02T17:09:57;29.80;32.70
53314;DHT22;39202;51.468;7.146;2023-07-02T17:14:58;29.80;32.60
53314;DHT22;39202;51.468;7.146;2023-07-02T17:20:02;29.40;32.30
53314;DHT22;39202;51.468;7.146;2023-07-02T17:25:05;29.70;32.70
53314;DHT22;39202;51.468;7.146;2023-07-02T17:30:08;29.70;32.70
53314;DHT22;39202;51.468;7.146;2023-07-02T17:35:12;29.60;32.70
53314;DHT22;39202;51.468;7.146;2023-07-02T17:40:15;29.60;32.60
53314;DHT22;39202;51.468;7.146;2023-07-02T17:45:16;29.80;32.60
53314;DHT22;39202;51.468;7.146;2023-07-02T17:50:20;29.60;32.50
53314;DHT22;39202;51.468;7.146;2023-07-02T17:55:21;29.60;33.20
53314;DHT22;39202;51.468;7.146;2023-07-02T18:00:23;29.60;32.50
53314;DHT22;39202;51.468;7.146;2023-07-02T18:05:26;29.60;32.60
53314;DHT22;39202;51.468;7.146;2023-07-02T18:10:28;29.60;32.50
53314;DHT22;39202;51.468;7.146;2023-07-02T18:15:30;29.50;33.10
53314;DHT22;39202;51.468;7.146;2023-07-02T18:20:33;29.50;32.50
53314;DHT22;39202;51.468;7.146;2023-07-02T18:25:35;29.50;32.40
53314;DHT22;39202;51.468;7.146;2023-07-02T18:30:42;30.80;33.30
53314;DHT22;39202;51.468;7.146;2023-07-02T18:35:45;29.50;32.80
53314;DHT22;39202;51.468;7.146;2023-07-02T18:40:47;29.50;32.40
53314;DHT22;39202;51.468;7.146;2023-07-02T18:45:50;29.50;32.50
53314;DHT22;39202;51.468;7.146;2023-07-02T18:50:54;29.50;32.50
53314;DHT22;39202;51.468;7.146;2023-07-02T18:56:04;29.50;32.50
53314;DHT22;39202;51.468;7.146;2023-07-02T19:01:09;29.50;32.60
53314;DHT22;39202;51.468;7.146;2023-07-02T19:06:14;29.40;32.70
53314;DHT22;39202;51.468;7.146;2023-07-02T19:11:16;29.40;32.60
53314;DHT22;39202;51.468;7.146;2023-07-02T19:16:18;29.40;32.80
53314;DHT22;39202;51.468;7.146;2023-07-02T19:21:21;29.40;32.80
53314;DHT22;39202;51.468;7.146;2023-07-02T19:26:23;29.30;32.80
53314;DHT22;39202;51.468;7.146;2023-07-02T19:31:25;29.40;33.10
53314;DHT22;39202;51.468;7.146;2023-07-02T19:36:30;29.40;32.80
53314;DHT22;39202;51.468;7.146;2023-07-02T19:41:32;29.30;32.90
53314;DHT22;39202;51.468;7.146;2023-07-02T19:46:33;29.60;33.00
53314;DHT22;39202;51.468;7.146;2023-07-02T19:51:37;29.30;33.50
53314;DHT22;39202;51.468;7.146;2023-07-02T19:56:40;29.30;33.00
53314;DHT22;39202;51.468;7.146;2023-07-02T20:01:43;29.30;33.00
53314;DHT22;39202;51.468;7.146;2023-07-02T20:06:47;29.30;33.00
53314;DHT22;39202;51.468;7.146;2023-07-02T20:11:48;29.30;33.00
53314;DHT22;39202;51.468;7.146;2023-07-02T20:16:50;29.30;33.10
53314;DHT22;39202;51.468;7.146;2023-07-02T20:21:53;29.30;33.30
53314;DHT22;39202;51.468;7.146;2023-07-02T20:26:57;29.30;33.30
53314;DHT22;39202;51.468;7.146;2023-07-02T20:31:59;29.20;33.30
53314;DHT22;39202;51.468;7.146;2023-07-02T20:37:02;29.30;33.30
53314;DHT22;39202;51.468;7.146;2023-07-02T20:42:05;29.30;33.60
53314;DHT22;39202;51.468;7.146;2023-07-02T20:47:08;29.30;33.50
53314;DHT22;39202;51.468;7.146;2023-07-02T20:52:11;29.50;33.60
53314;DHT22;39202;51.468;7.146;2023-07-02T20:57:13;29.30;33.40
53314;DHT22;39202;51.468;7.146;2023-07-02T21:02:15;29.70;33.60
53314;DHT22;39202;51.468;7.146;2023-07-02T21:07:20;29.30;33.30
53314;DHT22;39202;51.468;7.146;2023-07-02T21:12:22;29.20;33.40
53314;DHT22;39202;51.468;7.146;2023-07-02T21:17:23;29.20;33.50
53314;DHT22;39202;51.468;7.146;2023-07-02T21:22:26;29.90;34.00
53314;DHT22;39202;51.468;7.146;2023-07-02T21:27:28;29.40;33.80
53314;DHT22;39202;51.468;7.146;2023-07-02T21:32:34;29.20;33.70
53314;DHT22;39202;51.468;7.146;2023-07-02T21:37:51;29.20;33.90
53314;DHT22;39202;51.468;7.146;2023-07-02T21:42:53;29.20;33.80
53314;DHT22;39202;51.468;7.146;2023-07-02T21:47:55;29.10;33.80
53314;DHT22;39202;51.468;7.146;2023-07-02T21:52:58;29.20;33.90
53314;DHT22;39202;51.468;7.146;2023-07-02T21:58:00;29.50;34.10
53314;DHT22;39202;51.468;7.146;2023-07-02T22:03:02;29.10;33.90
53314;DHT22;39202;51.468;7.146;2023-07-02T22:08:05;29.20;34.00
53314;DHT22;39202;51.468;7.146;2023-07-02T22:13:07;29.20;34.10
53314;DHT22;39202;51.468;7.146;2023-07-02T22:18:09;29.00;33.80
53314;DHT22;39202;51.468;7.146;2023-07-02T22:23:12;29.60;34.30
53314;DHT22;39202;51.468;7.146;2023-07-02T22:28:14;29.20;34.30
53314;DHT22;39202;51.468;7.146;2023-07-02T22:33:16;29.20;34.10
53314;DHT22;39202;51.468;7.146;2023-07-02T22:38:19;29.20;34.10
53314;DHT22;39202;51.468;7.146;2023-07-02T22:43:22;30.20;34.90
53314;DHT22;39202;51.468;7.146;2023-07-02T22:48:23;29.20;34.20
53314;DHT22;39202;51.468;7.146;2023-07-02T22:53:26;29.20;34.20
53314;DHT22;39202;51.468;7.146;2023-07-02T22:58:28;29.20;34.20
53314;DHT22;39202;51.468;7.146;2023-07-02T23:03:30;29.20;34.20
53314;DHT22;39202;51.468;7.146;2023-07-02T23:08:33;29.20;34.30
53314;DHT22;39202;51.468;7.146;2023-07-02T23:13:35;29.20;34.30
53314;DHT22;39202;51.468;7.146;2023-07-02T23:18:36;29.20;34.20
53314;DHT22;39202;51.468;7.146;2023-07-02T23:23:39;29.20;34.20
53314;DHT22;39202;51.468;7.146;2023-07-02T23:28:42;29.20;34.30
53314;DHT22;39202;51.468;7.146;2023-07-02T23:33:44;29.20;34.20
53314;DHT22;39202;51.468;7.146;2023-07-02T23:38:47;29.20;34.20
53314;DHT22;39202;51.468;7.146;2023-07-02T23:43:49;29.20;34.30
53314;DHT22;39202;51.468;7.146;2023-07-02T23:48:51;29.20;34.20
53314;DHT22;39202;51.468;7.146;2023-07-02T23:53:54;29.20;34.30
53314;DHT22;39202;51.468;7.146;2023-07-02T23:58:56;29.20;34.30
